createdAt,value
2018-08-12T00:00:28.981Z,14.90
2018-08-12T00:02:57.780Z,15.00
2018-08-12T00:05:25.484Z,15.00
2018-08-12T00:07:53.184Z,15.00
2018-08-12T00:10:25.322Z,15.00
2018-08-12T00:12:52.883Z,15.00
2018-08-12T00:15:22.145Z,14.90
2018-08-12T00:17:49.601Z,14.80
2018-08-12T00:20:19.265Z,14.70
2018-08-12T00:22:47.485Z,14.70
2018-08-12T00:25:16.634Z,14.70
2018-08-12T00:27:44.197Z,14.60
2018-08-12T00:30:14.765Z,14.60
2018-08-12T00:32:42.362Z,14.50
2018-08-12T00:35:12.833Z,14.60
2018-08-12T00:37:40.937Z,14.50
2018-08-12T00:40:10.708Z,14.50
2018-08-12T00:42:38.360Z,14.60
2018-08-12T00:45:09.784Z,14.60
2018-08-12T00:47:37.386Z,14.50
2018-08-12T00:50:06.516Z,14.50
2018-08-12T00:52:34.148Z,14.40
2018-08-12T00:55:01.693Z,14.40
2018-08-12T00:57:29.309Z,14.30
2018-08-12T00:59:57.012Z,14.30
2018-08-12T01:02:24.632Z,14.30
2018-08-12T01:04:52.234Z,14.30
2018-08-12T01:07:19.797Z,14.20
2018-08-12T01:09:48.009Z,14.10
2018-08-12T01:12:15.485Z,14.10
2018-08-12T01:14:43.157Z,14.10
2018-08-12T01:17:10.771Z,14.10
2018-08-12T01:19:38.369Z,14.00
2018-08-12T01:22:06.046Z,13.90
2018-08-12T01:24:33.748Z,13.80
2018-08-12T01:27:01.992Z,13.80
2018-08-12T01:29:29.665Z,13.80
2018-08-12T01:31:57.267Z,13.80
2018-08-12T01:34:24.893Z,13.70
2018-08-12T01:36:52.441Z,13.80
2018-08-12T01:39:20.049Z,13.70
2018-08-12T01:41:47.585Z,13.60
2018-08-12T01:44:15.184Z,13.60
2018-08-12T01:46:42.812Z,13.60
2018-08-12T01:49:10.478Z,13.60
2018-08-12T01:51:38.793Z,13.60
2018-08-12T01:54:06.413Z,13.60
2018-08-12T01:56:34.021Z,13.60
2018-08-12T01:59:01.581Z,13.60
2018-08-12T02:01:29.210Z,13.60
2018-08-12T02:03:56.810Z,13.50
2018-08-12T02:06:24.408Z,13.60
2018-08-12T02:08:52.038Z,13.60
2018-08-12T02:11:19.686Z,13.60
2018-08-12T02:13:47.334Z,13.60
2018-08-12T02:16:14.952Z,13.60
2018-08-12T02:18:42.528Z,13.50
2018-08-12T02:21:10.132Z,13.40
2018-08-12T02:23:37.762Z,13.40
2018-08-12T02:26:05.416Z,13.30
2018-08-12T02:28:33.026Z,13.30
2018-08-12T02:31:00.638Z,13.30
2018-08-12T02:33:28.286Z,13.20
2018-08-12T02:35:55.953Z,13.20
2018-08-12T02:38:23.502Z,13.10
2018-08-12T02:40:51.145Z,13.00
2018-08-12T02:43:18.727Z,12.90
2018-08-12T02:45:46.341Z,12.80
2018-08-12T02:48:13.971Z,12.80
2018-08-12T02:50:42.077Z,12.80
2018-08-12T02:53:09.742Z,12.80
2018-08-12T02:55:37.321Z,12.90
2018-08-12T02:58:04.952Z,12.90
2018-08-12T03:00:32.508Z,12.90
2018-08-12T03:03:00.124Z,12.90
2018-08-12T03:05:27.697Z,12.90
2018-08-12T03:07:55.329Z,12.90
2018-08-12T03:10:22.978Z,12.90
2018-08-12T03:12:50.622Z,12.80
2018-08-12T03:15:18.183Z,12.80
2018-08-12T03:17:45.766Z,12.90
2018-08-12T03:20:15.367Z,12.90
2018-08-12T03:22:42.986Z,12.90
2018-08-12T03:25:10.982Z,12.80
2018-08-12T03:27:38.866Z,12.80
2018-08-12T03:30:07.316Z,12.80
2018-08-12T03:32:35.010Z,12.80
2018-08-12T03:35:02.728Z,12.80
2018-08-12T03:37:31.204Z,12.80
2018-08-12T03:39:58.849Z,12.80
2018-08-12T03:42:26.438Z,12.80
2018-08-12T03:44:54.040Z,12.80
2018-08-12T03:47:21.632Z,12.70
2018-08-12T03:49:49.264Z,12.70
2018-08-12T03:52:16.865Z,12.60
2018-08-12T03:54:44.422Z,12.70
2018-08-12T03:57:12.096Z,12.70
2018-08-12T03:59:39.662Z,12.70
2018-08-12T04:02:07.661Z,12.80
2018-08-12T04:04:35.234Z,12.80
2018-08-12T04:07:02.781Z,12.80
2018-08-12T04:09:30.445Z,12.80
2018-08-12T04:11:57.991Z,12.80
2018-08-12T04:14:25.592Z,12.80
2018-08-12T04:16:59.490Z,12.90
2018-08-12T04:19:28.198Z,12.80
2018-08-12T04:21:55.786Z,12.90
2018-08-12T04:24:23.560Z,12.90
2018-08-12T04:26:51.148Z,13.00
2018-08-12T04:29:18.816Z,13.00
2018-08-12T04:31:46.446Z,13.00
2018-08-12T04:34:14.103Z,13.10
2018-08-12T04:36:41.877Z,13.20
2018-08-12T04:39:11.495Z,13.10
2018-08-12T04:41:39.674Z,13.20
2018-08-12T04:44:07.250Z,13.20
2018-08-12T04:46:35.493Z,13.40
2018-08-12T04:49:03.084Z,13.40
2018-08-12T04:51:30.703Z,13.50
2018-08-12T04:53:58.261Z,13.50
2018-08-12T04:56:25.812Z,13.60
2018-08-12T04:58:53.645Z,13.60
2018-08-12T05:01:21.289Z,13.80
2018-08-12T05:03:48.861Z,13.70
2018-08-12T05:06:16.513Z,13.70
2018-08-12T05:08:44.292Z,13.70
2018-08-12T05:11:11.883Z,13.90
2018-08-12T05:13:39.571Z,13.90
2018-08-12T05:16:07.356Z,14.10
2018-08-12T05:18:35.086Z,14.20
2018-08-12T05:21:02.738Z,14.10
2018-08-12T05:23:30.328Z,14.20
2018-08-12T05:25:57.888Z,14.40
2018-08-12T05:28:25.604Z,14.40
2018-08-12T05:30:53.193Z,14.40
2018-08-12T05:33:20.806Z,14.50
2018-08-12T05:35:48.426Z,14.70
2018-08-12T05:38:16.052Z,14.90
2018-08-12T05:40:43.706Z,15.00
2018-08-12T05:43:18.105Z,15.10
2018-08-12T05:45:45.725Z,15.10
2018-08-12T05:48:13.357Z,15.20
2018-08-12T05:50:40.935Z,15.40
2018-08-12T05:53:08.498Z,15.50
2018-08-12T05:55:36.097Z,15.60
2018-08-12T05:58:03.802Z,15.90
2018-08-12T06:00:31.390Z,15.90
2018-08-12T06:02:58.918Z,16.20
2018-08-12T06:05:26.475Z,16.50
2018-08-12T06:07:54.082Z,16.40
2018-08-12T06:10:21.621Z,16.30
2018-08-12T06:12:49.218Z,16.70
2018-08-12T06:15:17.520Z,17.00
2018-08-12T06:17:45.361Z,17.30
2018-08-12T06:20:13.662Z,17.50
2018-08-12T06:22:41.263Z,17.40
2018-08-12T06:25:10.028Z,17.60
2018-08-12T06:27:37.643Z,17.70
2018-08-12T06:30:08.980Z,17.80
2018-08-12T06:32:37.115Z,17.50
2018-08-12T06:35:04.960Z,17.50
2018-08-12T06:37:32.530Z,17.70
2018-08-12T06:40:00.149Z,17.80
2018-08-12T06:42:27.766Z,18.00
2018-08-12T06:44:55.400Z,17.90
2018-08-12T06:47:23.086Z,17.80
2018-08-12T06:49:51.503Z,17.70
2018-08-12T06:52:19.710Z,17.90
2018-08-12T06:54:47.330Z,18.00
2018-08-12T06:57:14.880Z,18.40
2018-08-12T06:59:42.452Z,18.50
2018-08-12T07:02:10.898Z,18.80
2018-08-12T07:04:38.547Z,18.80
2018-08-12T07:07:06.652Z,19.00
2018-08-12T07:09:34.278Z,19.30
2018-08-12T07:12:01.995Z,19.20
2018-08-12T07:14:29.622Z,19.40
2018-08-12T07:16:57.779Z,19.70
2018-08-12T07:19:25.349Z,20.00
2018-08-12T07:21:52.893Z,19.90
2018-08-12T07:24:20.579Z,19.70
2018-08-12T07:26:48.178Z,19.90
2018-08-12T07:29:15.789Z,19.70
2018-08-12T07:31:43.445Z,20.00
2018-08-12T07:34:11.377Z,20.40
2018-08-12T07:36:39.187Z,20.60
2018-08-12T07:39:08.809Z,20.90
2018-08-12T07:41:39.675Z,21.00
2018-08-12T07:44:07.241Z,20.90
2018-08-12T07:46:34.861Z,20.60
2018-08-12T07:49:02.589Z,20.70
2018-08-12T07:51:30.189Z,21.00
2018-08-12T07:53:57.870Z,21.00
2018-08-12T07:56:25.487Z,21.60
2018-08-12T07:58:53.107Z,21.80
2018-08-12T08:01:20.801Z,22.20
2018-08-12T08:03:48.375Z,22.20
2018-08-12T08:06:15.996Z,22.20
2018-08-12T08:08:43.626Z,22.20
2018-08-12T08:11:11.218Z,22.30
2018-08-12T08:13:38.836Z,22.50
2018-08-12T08:16:06.973Z,22.80
2018-08-12T08:18:34.544Z,22.50
2018-08-12T08:21:02.156Z,22.90
2018-08-12T08:23:29.790Z,23.00
2018-08-12T08:25:57.779Z,22.90
2018-08-12T08:28:25.334Z,22.50
2018-08-12T08:30:52.866Z,22.60
2018-08-12T08:33:20.668Z,23.20
2018-08-12T08:35:48.278Z,23.70
2018-08-12T08:38:15.904Z,23.70
2018-08-12T08:40:44.178Z,23.60
2018-08-12T08:43:11.758Z,23.60
2018-08-12T08:45:39.413Z,24.20
2018-08-12T08:48:07.177Z,24.10
2018-08-12T08:50:35.768Z,24.50
2018-08-12T08:53:03.410Z,24.60
2018-08-12T08:55:31.075Z,24.60
2018-08-12T08:57:58.705Z,24.80
2018-08-12T09:00:26.405Z,24.60
2018-08-12T09:02:54.020Z,24.70
2018-08-12T09:05:22.167Z,24.80
2018-08-12T09:07:50.408Z,24.70
2018-08-12T09:10:19.190Z,24.90
2018-08-12T09:12:47.402Z,25.10
2018-08-12T09:15:17.681Z,24.80
2018-08-12T09:17:46.036Z,24.50
2018-08-12T09:20:15.241Z,24.60
2018-08-12T09:22:43.129Z,24.70
2018-08-12T09:25:11.972Z,24.50
2018-08-12T09:27:39.787Z,24.50
2018-08-12T09:30:14.706Z,24.70
2018-08-12T09:32:42.789Z,24.60
2018-08-12T09:35:10.445Z,24.70
2018-08-12T09:37:38.176Z,24.30
2018-08-12T09:40:09.745Z,24.60
2018-08-12T09:42:37.381Z,24.40
2018-08-12T09:45:07.686Z,24.50
2018-08-12T09:47:35.301Z,24.60
2018-08-12T09:50:03.415Z,24.90
2018-08-12T09:52:30.957Z,24.60
2018-08-12T09:54:58.735Z,24.80
2018-08-12T09:57:26.706Z,25.10
2018-08-12T09:59:54.294Z,24.90
2018-08-12T10:02:21.954Z,25.20
2018-08-12T10:04:49.532Z,25.30
2018-08-12T10:07:17.448Z,25.30
2018-08-12T10:09:45.617Z,25.20
2018-08-12T10:12:13.260Z,24.70
2018-08-12T10:14:40.848Z,24.50
2018-08-12T10:17:08.415Z,24.70
2018-08-12T10:19:36.075Z,24.80
2018-08-12T10:22:03.759Z,25.00
2018-08-12T10:24:31.369Z,25.10
2018-08-12T10:26:58.917Z,25.20
2018-08-12T10:29:26.490Z,25.30
2018-08-12T10:31:54.204Z,25.70
2018-08-12T10:34:21.874Z,25.50
2018-08-12T10:36:49.579Z,25.60
2018-08-12T10:39:17.258Z,25.80
2018-08-12T10:41:44.948Z,26.10
2018-08-12T10:44:12.767Z,25.90
2018-08-12T10:46:40.422Z,25.70
2018-08-12T10:49:08.080Z,25.60
2018-08-12T10:51:35.986Z,25.40
2018-08-12T10:54:03.718Z,25.40
2018-08-12T10:56:31.418Z,25.60
2018-08-12T10:58:59.088Z,25.90
2018-08-12T11:01:27.109Z,26.20
2018-08-12T11:03:54.790Z,26.60
2018-08-12T11:06:22.535Z,27.10
2018-08-12T11:08:50.248Z,27.40
2018-08-12T11:11:18.129Z,27.90
2018-08-12T11:13:45.947Z,27.40
2018-08-12T11:16:13.677Z,26.90
2018-08-12T11:18:41.396Z,26.40
2018-08-12T11:21:09.070Z,27.00
2018-08-12T11:23:37.337Z,27.30
2018-08-12T11:26:05.338Z,28.00
2018-08-12T11:28:33.024Z,28.80
2018-08-12T11:33:28.965Z,29.10
2018-08-12T11:35:56.659Z,29.10
2018-08-12T11:38:24.307Z,29.20
2018-08-12T11:40:51.995Z,28.80
2018-08-12T11:43:19.743Z,28.40
2018-08-12T11:45:47.431Z,27.70
2018-08-12T11:48:15.114Z,27.50
2018-08-12T11:50:42.804Z,27.60
2018-08-12T11:53:10.518Z,27.60
2018-08-12T11:55:38.334Z,27.50
2018-08-12T11:58:06.019Z,27.40
2018-08-12T12:00:33.726Z,27.80
2018-08-12T12:03:01.437Z,28.30
2018-08-12T12:05:29.150Z,29.30
2018-08-12T12:07:56.847Z,30.40
2018-08-12T12:10:24.534Z,30.90
2018-08-12T12:12:53.109Z,32.10
2018-08-12T12:15:20.838Z,33.80
2018-08-12T12:17:48.763Z,33.90
2018-08-12T12:20:17.238Z,33.60
2018-08-12T12:22:45.510Z,34.20
2018-08-12T12:25:14.550Z,33.60
2018-08-12T12:27:42.189Z,34.10
2018-08-12T12:30:13.467Z,35.70
2018-08-12T12:32:41.991Z,36.70
2018-08-12T12:35:09.621Z,36.50
2018-08-12T12:37:37.591Z,38.50
2018-08-12T12:40:06.970Z,36.80
2018-08-12T12:42:34.782Z,37.70
2018-08-12T12:45:02.470Z,36.30
2018-08-12T12:47:30.249Z,38.30
2018-08-12T12:49:57.838Z,37.70
2018-08-12T12:52:25.519Z,38.40
2018-08-12T12:54:53.229Z,41.30
2018-08-12T12:57:20.907Z,42.70
2018-08-12T12:59:48.589Z,42.20
2018-08-12T13:02:16.255Z,39.30
2018-08-12T13:04:43.964Z,39.70
2018-08-12T13:07:11.890Z,40.30
2018-08-12T13:09:39.524Z,39.30
2018-08-12T13:12:07.216Z,37.80
2018-08-12T13:14:34.908Z,37.90
2018-08-12T13:17:02.771Z,39.80
2018-08-12T13:19:30.614Z,41.70
2018-08-12T13:21:58.443Z,42.30
2018-08-12T13:24:26.438Z,44.20
2018-08-12T13:26:54.140Z,43.70
2018-08-12T13:29:21.875Z,44.40
2018-08-12T13:31:49.662Z,42.20
2018-08-12T13:34:17.366Z,39.00
2018-08-12T13:36:45.040Z,38.30
2018-08-12T13:39:13.216Z,38.10
2018-08-12T13:41:40.871Z,37.70
2018-08-12T13:44:08.577Z,39.00
2018-08-12T13:46:36.195Z,39.30
2018-08-12T13:49:03.949Z,39.10
2018-08-12T13:51:31.839Z,39.30
2018-08-12T13:53:59.621Z,42.00
2018-08-12T13:56:27.246Z,42.00
2018-08-12T13:58:54.903Z,43.30
2018-08-12T14:01:22.628Z,43.10
2018-08-12T14:03:50.895Z,40.40
2018-08-12T14:06:19.182Z,40.70
2018-08-12T14:08:46.872Z,43.40
2018-08-12T14:11:14.601Z,45.60
2018-08-12T14:13:42.384Z,46.30
2018-08-12T14:16:09.968Z,46.50
2018-08-12T14:18:37.799Z,45.60
2018-08-12T14:21:05.647Z,46.80
2018-08-12T14:23:33.538Z,47.20
2018-08-12T14:26:01.329Z,42.60
2018-08-12T14:28:29.087Z,41.80
2018-08-12T14:30:57.826Z,42.10
2018-08-12T14:33:25.768Z,42.50
2018-08-12T14:35:53.561Z,44.20
2018-08-12T14:38:21.338Z,44.80
2018-08-12T14:40:54.828Z,45.00
2018-08-12T14:43:22.533Z,46.10
2018-08-12T14:45:50.313Z,46.80
2018-08-12T14:48:18.077Z,47.40
2018-08-12T14:50:45.864Z,45.50
2018-08-12T14:53:13.627Z,40.20
2018-08-12T14:55:41.279Z,40.40
2018-08-12T14:58:09.105Z,41.70
2018-08-12T15:00:36.724Z,42.00
2018-08-12T15:03:04.497Z,42.30
2018-08-12T15:05:32.229Z,41.90
2018-08-12T15:07:59.898Z,41.70
2018-08-12T15:10:27.708Z,41.50
2018-08-12T15:12:55.446Z,42.20
2018-08-12T15:15:23.211Z,43.20
2018-08-12T15:17:50.922Z,44.00
2018-08-12T15:20:18.636Z,45.70
2018-08-12T15:22:46.341Z,45.50
2018-08-12T15:25:16.611Z,45.00
2018-08-12T15:27:44.471Z,45.20
2018-08-12T15:30:12.191Z,44.80
2018-08-12T15:32:40.439Z,44.80
2018-08-12T15:35:08.798Z,44.40
2018-08-12T15:37:36.634Z,44.80
2018-08-12T15:40:08.012Z,45.20
2018-08-12T15:42:35.786Z,46.00
2018-08-12T15:45:05.670Z,45.60
2018-08-12T15:47:33.416Z,46.10
2018-08-12T15:50:01.237Z,46.20
2018-08-12T15:52:28.919Z,45.70
2018-08-12T15:54:56.652Z,45.80
2018-08-12T15:57:24.356Z,45.70
2018-08-12T15:59:52.069Z,45.10
2018-08-12T16:02:19.663Z,44.10
2018-08-12T16:04:47.372Z,43.90
2018-08-12T16:07:15.010Z,43.30
2018-08-12T16:09:42.684Z,43.60
2018-08-12T16:12:10.699Z,43.80
2018-08-12T16:14:38.341Z,42.30
2018-08-12T16:17:06.334Z,43.90
2018-08-12T16:19:34.000Z,44.40
2018-08-12T16:22:01.689Z,44.50
2018-08-12T16:24:29.382Z,44.20
2018-08-12T16:26:57.027Z,44.00
2018-08-12T16:29:24.720Z,43.40
2018-08-12T16:31:52.381Z,43.00
2018-08-12T16:34:20.082Z,43.10
2018-08-12T16:36:47.754Z,43.80
2018-08-12T16:39:15.499Z,43.00
2018-08-12T16:41:43.259Z,42.40
2018-08-12T16:44:11.007Z,41.90
2018-08-12T16:46:38.704Z,41.30
2018-08-12T16:49:06.367Z,41.10
2018-08-12T16:51:40.766Z,40.80
2018-08-12T16:54:08.776Z,40.00
2018-08-12T16:56:36.453Z,39.40
2018-08-12T16:59:04.487Z,39.00
2018-08-12T17:01:32.215Z,38.30
2018-08-12T17:03:59.990Z,37.90
2018-08-12T17:06:28.100Z,38.20
2018-08-12T17:08:56.020Z,37.90
2018-08-12T17:11:24.009Z,38.10
2018-08-12T17:13:51.795Z,39.20
2018-08-12T17:16:19.589Z,39.60
2018-08-12T17:18:47.521Z,39.70
2018-08-12T17:21:15.461Z,39.30
2018-08-12T17:23:43.236Z,38.80
2018-08-12T17:26:10.918Z,38.20
2018-08-12T17:28:38.671Z,37.60
2018-08-12T17:31:06.363Z,37.10
2018-08-12T17:33:34.386Z,36.40
2018-08-12T17:36:02.101Z,35.60
2018-08-12T17:38:29.710Z,34.60
2018-08-12T17:40:57.388Z,33.60
2018-08-12T17:45:59.604Z,32.30
2018-08-12T17:48:27.310Z,31.90
2018-08-12T17:50:55.022Z,31.40
2018-08-12T17:53:22.721Z,30.80
2018-08-12T17:55:50.433Z,30.50
2018-08-12T17:58:18.135Z,29.90
2018-08-12T18:00:45.836Z,29.40
2018-08-12T18:03:13.580Z,29.10
2018-08-12T18:05:41.614Z,28.90
2018-08-12T18:08:09.592Z,28.70
2018-08-12T18:10:37.253Z,28.50
2018-08-12T18:13:05.076Z,28.20
2018-08-12T18:15:32.893Z,27.80
2018-08-12T18:18:00.658Z,27.70
2018-08-12T18:20:28.528Z,27.60
2018-08-12T18:22:56.259Z,27.50
2018-08-12T18:25:24.023Z,27.20
2018-08-12T18:27:51.723Z,27.10
2018-08-12T18:30:19.500Z,26.70
2018-08-12T18:32:47.262Z,26.40
2018-08-12T18:35:15.077Z,26.20
2018-08-12T18:37:42.946Z,25.90
2018-08-12T18:40:11.563Z,25.50
2018-08-12T18:42:39.462Z,25.40
2018-08-12T18:45:07.536Z,25.40
2018-08-12T18:47:35.487Z,25.30
2018-08-12T18:50:05.276Z,25.30
2018-08-12T18:52:33.053Z,25.10
2018-08-12T18:55:00.893Z,24.80
2018-08-12T18:57:28.891Z,24.50
2018-08-12T18:59:56.879Z,24.30
2018-08-12T19:02:24.720Z,24.20
2018-08-12T19:04:52.532Z,24.20
2018-08-12T19:07:20.288Z,24.10
2018-08-12T19:09:48.621Z,24.10
2018-08-12T19:12:16.500Z,24.20
2018-08-12T19:14:44.361Z,24.10
2018-08-12T19:17:12.330Z,24.10
2018-08-12T19:19:40.126Z,24.10
2018-08-12T19:22:08.843Z,24.00
2018-08-12T19:24:36.758Z,24.00
2018-08-12T19:27:04.448Z,23.90
2018-08-12T19:29:32.661Z,23.80
2018-08-12T19:32:00.694Z,23.60
2018-08-12T19:34:28.585Z,23.50
2018-08-12T19:36:56.779Z,23.50
2018-08-12T19:39:24.959Z,23.40
2018-08-12T19:41:52.684Z,23.40
2018-08-12T19:44:20.501Z,23.30
2018-08-12T19:46:48.305Z,23.20
2018-08-12T19:49:16.502Z,23.00
2018-08-12T19:51:44.294Z,22.90
2018-08-12T19:54:12.088Z,22.90
2018-08-12T19:56:40.166Z,22.60
2018-08-12T19:59:08.926Z,22.40
2018-08-12T20:01:36.788Z,22.30
2018-08-12T20:04:04.596Z,22.20
2018-08-12T20:06:32.470Z,22.20
2018-08-12T20:09:00.354Z,22.10
2018-08-12T20:11:28.172Z,22.10
2018-08-12T20:13:56.024Z,22.00
2018-08-12T20:16:24.107Z,21.80
2018-08-12T20:18:51.889Z,21.70
2018-08-12T20:21:19.656Z,21.70
2018-08-12T20:23:47.437Z,21.60
2018-08-12T20:26:15.378Z,21.50
2018-08-12T20:28:43.065Z,21.60
2018-08-12T20:31:11.015Z,21.60
2018-08-12T20:33:38.702Z,21.50
2018-08-12T20:36:07.387Z,21.50
2018-08-12T20:38:35.091Z,21.50
2018-08-12T20:41:02.800Z,21.40
2018-08-12T20:43:30.514Z,21.40
2018-08-12T20:45:58.408Z,21.30
2018-08-12T20:48:26.212Z,21.30
2018-08-12T20:50:54.059Z,21.30
2018-08-12T20:53:22.089Z,21.30
2018-08-12T20:55:49.907Z,21.20
2018-08-12T20:58:17.611Z,21.20
2018-08-12T21:00:45.550Z,21.10
2018-08-12T21:03:13.382Z,21.10
2018-08-12T21:05:41.235Z,21.00
2018-08-12T21:08:09.195Z,21.00
2018-08-12T21:10:37.126Z,20.90
2018-08-12T21:13:05.166Z,20.80
2018-08-12T21:15:32.951Z,20.70
2018-08-12T21:18:00.726Z,20.70
2018-08-12T21:20:28.631Z,20.60
2018-08-12T21:22:56.370Z,20.50
2018-08-12T21:25:24.075Z,20.40
2018-08-12T21:27:51.919Z,20.40
2018-08-12T21:30:19.626Z,20.30
2018-08-12T21:32:47.333Z,20.30
2018-08-12T21:35:15.053Z,20.20
2018-08-12T21:37:42.818Z,20.10
2018-08-12T21:40:10.770Z,20.00
2018-08-12T21:42:38.533Z,20.00
2018-08-12T21:45:06.355Z,20.00
2018-08-12T21:47:34.391Z,20.00
2018-08-12T21:50:02.118Z,19.90
2018-08-12T21:52:29.877Z,19.90
2018-08-12T21:54:57.736Z,19.80
2018-08-12T21:57:25.744Z,19.70
2018-08-12T21:59:53.520Z,19.60
2018-08-12T22:02:21.235Z,19.60
2018-08-12T22:04:48.964Z,19.60
2018-08-12T22:07:16.781Z,19.60
2018-08-12T22:09:44.614Z,19.60
2018-08-12T22:12:12.343Z,19.60
2018-08-12T22:14:40.024Z,19.50
2018-08-12T22:17:07.773Z,19.40
2018-08-12T22:19:35.571Z,19.30
2018-08-12T22:22:03.709Z,19.30
2018-08-12T22:24:31.461Z,19.30
2018-08-12T22:26:59.142Z,19.10
2018-08-12T22:29:26.939Z,19.10
2018-08-12T22:31:54.770Z,19.00
2018-08-12T22:34:22.591Z,18.90
2018-08-12T22:36:50.450Z,18.90
2018-08-12T22:39:18.175Z,18.90
2018-08-12T22:41:45.858Z,18.80
2018-08-12T22:44:13.522Z,18.80
2018-08-12T22:46:47.879Z,18.70
2018-08-12T22:49:15.505Z,18.70
2018-08-12T22:51:43.194Z,18.60
2018-08-12T22:54:10.999Z,18.60
2018-08-12T22:56:38.661Z,18.50
2018-08-12T22:59:06.497Z,18.50
2018-08-12T23:01:34.588Z,18.50
2018-08-12T23:04:02.293Z,18.30
2018-08-12T23:06:36.776Z,18.30
2018-08-12T23:09:07.276Z,18.40
2018-08-12T23:11:35.180Z,18.30
2018-08-12T23:14:03.331Z,18.20
2018-08-12T23:16:48.499Z,18.10
2018-08-12T23:19:16.337Z,18.10
2018-08-12T23:21:44.159Z,18.00
2018-08-12T23:24:11.931Z,18.00
2018-08-12T23:26:39.706Z,17.90
2018-08-12T23:29:07.367Z,17.80
2018-08-12T23:31:35.205Z,17.80
2018-08-12T23:34:02.948Z,17.70
2018-08-12T23:36:30.675Z,17.70
2018-08-12T23:38:58.405Z,17.60
2018-08-12T23:41:26.190Z,17.50
2018-08-12T23:43:53.941Z,17.50
2018-08-12T23:46:21.682Z,17.50
2018-08-12T23:48:49.402Z,17.50
2018-08-12T23:51:17.102Z,17.40
2018-08-12T23:53:44.823Z,17.40
2018-08-12T23:56:12.575Z,17.40
2018-08-12T23:58:40.315Z,17.40
